Ahtanum, Washington
Current Conditions -  °F | °C
As of 5:53 PM on Thursday 20 Nov 2014 (Local Time) from KYKM Reporting Station
Haze Haze  
Wind Chill:   Ceiling: 9500
Heat Index:   Visibility: 5mi
Dew Point: -3°   Wind: 0mph
Humidity: 73%   Direction: NA
Pressure: 30.04"   Gusts: NA
Location:  46.5979°N, 120.534°W
Report Text: KYKM 210153Z 00000KT 5SM HZ OVC095 01/M03 A3004 RMK AO2 SLP185 T00111033
Loading
Personal Weather Stations






























Interactive Weather Map New forecast layout! Learn more

10-Day Weather Forecast

Advertisements
Track Severe Weather on mobile